sensor_id;sensor_type;location;lat;lon;timestamp;P1;durP1;ratioP1;P2;durP2;ratioP2
38318;SDS011;24121;53.536;10.224;2023-02-14T00:01:20;38.78;;;23.13;;
38318;SDS011;24121;53.536;10.224;2023-02-14T00:03:45;38.22;;;23.08;;
38318;SDS011;24121;53.536;10.224;2023-02-14T00:06:11;37.58;;;22.77;;
38318;SDS011;24121;53.536;10.224;2023-02-14T00:08:37;38.30;;;23.67;;
38318;SDS011;24121;53.536;10.224;2023-02-14T00:11:05;42.92;;;24.50;;
38318;SDS011;24121;53.536;10.224;2023-02-14T00:13:30;37.70;;;22.95;;
38318;SDS011;24121;53.536;10.224;2023-02-14T00:15:56;37.78;;;23.17;;
38318;SDS011;24121;53.536;10.224;2023-02-14T00:18:21;39.33;;;23.40;;
38318;SDS011;24121;53.536;10.224;2023-02-14T00:20:46;38.80;;;23.10;;
38318;SDS011;24121;53.536;10.224;2023-02-14T00:23:12;41.90;;;23.92;;
38318;SDS011;24121;53.536;10.224;2023-02-14T00:25:37;40.28;;;22.45;;
38318;SDS011;24121;53.536;10.224;2023-02-14T00:28:02;39.83;;;24.00;;
38318;SDS011;24121;53.536;10.224;2023-02-14T00:30:27;40.22;;;24.05;;
38318;SDS011;24121;53.536;10.224;2023-02-14T00:32:53;41.72;;;22.95;;
38318;SDS011;24121;53.536;10.224;2023-02-14T00:35:18;40.92;;;23.50;;
38318;SDS011;24121;53.536;10.224;2023-02-14T00:37:46;40.95;;;23.63;;
38318;SDS011;24121;53.536;10.224;2023-02-14T00:40:14;39.95;;;23.65;;
38318;SDS011;24121;53.536;10.224;2023-02-14T00:42:39;39.53;;;23.25;;
38318;SDS011;24121;53.536;10.224;2023-02-14T00:45:05;40.97;;;23.38;;
38318;SDS011;24121;53.536;10.224;2023-02-14T00:47:30;40.88;;;23.25;;
38318;SDS011;24121;53.536;10.224;2023-02-14T00:49:56;40.63;;;23.27;;
38318;SDS011;24121;53.536;10.224;2023-02-14T00:52:26;35.45;;;21.10;;
38318;SDS011;24121;53.536;10.224;2023-02-14T00:54:53;40.75;;;23.02;;
38318;SDS011;24121;53.536;10.224;2023-02-14T00:57:18;39.63;;;23.10;;
38318;SDS011;24121;53.536;10.224;2023-02-14T00:59:43;40.53;;;22.55;;
38318;SDS011;24121;53.536;10.224;2023-02-14T01:02:09;38.00;;;22.80;;
38318;SDS011;24121;53.536;10.224;2023-02-14T01:04:34;38.45;;;22.52;;
38318;SDS011;24121;53.536;10.224;2023-02-14T01:06:59;38.00;;;23.27;;
38318;SDS011;24121;53.536;10.224;2023-02-14T01:09:24;43.38;;;24.30;;
38318;SDS011;24121;53.536;10.224;2023-02-14T01:11:50;38.90;;;22.02;;
38318;SDS011;24121;53.536;10.224;2023-02-14T01:14:15;42.47;;;23.85;;
38318;SDS011;24121;53.536;10.224;2023-02-14T01:16:40;39.38;;;23.15;;
38318;SDS011;24121;53.536;10.224;2023-02-14T01:19:06;41.25;;;23.63;;
38318;SDS011;24121;53.536;10.224;2023-02-14T01:21:33;37.17;;;22.75;;
38318;SDS011;24121;53.536;10.224;2023-02-14T01:24:03;37.72;;;22.35;;
38318;SDS011;24121;53.536;10.224;2023-02-14T01:26:30;39.85;;;23.40;;
38318;SDS011;24121;53.536;10.224;2023-02-14T01:28:55;39.50;;;23.55;;
38318;SDS011;24121;53.536;10.224;2023-02-14T01:31:25;41.28;;;24.00;;
38318;SDS011;24121;53.536;10.224;2023-02-14T01:33:52;37.35;;;22.83;;
38318;SDS011;24121;53.536;10.224;2023-02-14T01:38:47;40.38;;;23.90;;
38318;SDS011;24121;53.536;10.224;2023-02-14T01:41:15;42.90;;;24.08;;
38318;SDS011;24121;53.536;10.224;2023-02-14T01:44:52;39.92;;;24.20;;
38318;SDS011;24121;53.536;10.224;2023-02-14T01:46:38;42.80;;;24.23;;
38318;SDS011;24121;53.536;10.224;2023-02-14T01:49:10;40.28;;;24.48;;
38318;SDS011;24121;53.536;10.224;2023-02-14T01:51:39;45.40;;;25.58;;
38318;SDS011;24121;53.536;10.224;2023-02-14T01:54:07;42.05;;;22.40;;
38318;SDS011;24121;53.536;10.224;2023-02-14T01:56:34;39.17;;;23.35;;
38318;SDS011;24121;53.536;10.224;2023-02-14T01:59:02;39.67;;;23.70;;
38318;SDS011;24121;53.536;10.224;2023-02-14T02:01:29;42.95;;;24.80;;
38318;SDS011;24121;53.536;10.224;2023-02-14T02:03:55;43.05;;;23.83;;
38318;SDS011;24121;53.536;10.224;2023-02-14T02:06:25;39.40;;;22.50;;
38318;SDS011;24121;53.536;10.224;2023-02-14T02:09:03;41.72;;;23.85;;
38318;SDS011;24121;53.536;10.224;2023-02-14T02:13:59;40.28;;;22.67;;
38318;SDS011;24121;53.536;10.224;2023-02-14T02:24:39;36.25;;;22.70;;
38318;SDS011;24121;53.536;10.224;2023-02-14T02:27:33;37.60;;;21.25;;
38318;SDS011;24121;53.536;10.224;2023-02-14T02:32:45;37.03;;;22.55;;
38318;SDS011;24121;53.536;10.224;2023-02-14T02:35:21;39.53;;;22.92;;
38318;SDS011;24121;53.536;10.224;2023-02-14T02:38:06;36.67;;;22.77;;
38318;SDS011;24121;53.536;10.224;2023-02-14T02:46:30;41.03;;;23.25;;
38318;SDS011;24121;53.536;10.224;2023-02-14T02:49:19;41.35;;;22.30;;
38318;SDS011;24121;53.536;10.224;2023-02-14T02:52:16;37.20;;;20.30;;
38318;SDS011;24121;53.536;10.224;2023-02-14T02:55:05;37.72;;;20.83;;
38318;SDS011;24121;53.536;10.224;2023-02-14T02:57:37;40.88;;;22.30;;
38318;SDS011;24121;53.536;10.224;2023-02-14T03:00:04;39.65;;;23.95;;
38318;SDS011;24121;53.536;10.224;2023-02-14T03:02:35;36.35;;;21.30;;
38318;SDS011;24121;53.536;10.224;2023-02-14T03:05:24;41.72;;;24.83;;
38318;SDS011;24121;53.536;10.224;2023-02-14T03:07:51;38.38;;;22.67;;
38318;SDS011;24121;53.536;10.224;2023-02-14T03:12:48;39.20;;;24.07;;
38318;SDS011;24121;53.536;10.224;2023-02-14T03:23:43;40.33;;;23.60;;
38318;SDS011;24121;53.536;10.224;2023-02-14T03:26:16;39.00;;;23.25;;
38318;SDS011;24121;53.536;10.224;2023-02-14T03:28:58;38.47;;;22.58;;
38318;SDS011;24121;53.536;10.224;2023-02-14T03:31:42;35.55;;;21.10;;
38318;SDS011;24121;53.536;10.224;2023-02-14T03:36:54;40.55;;;23.30;;
38318;SDS011;24121;53.536;10.224;2023-02-14T03:39:27;45.10;;;24.58;;
38318;SDS011;24121;53.536;10.224;2023-02-14T03:42:02;39.97;;;22.92;;
38318;SDS011;24121;53.536;10.224;2023-02-14T03:44:30;37.83;;;22.33;;
38318;SDS011;24121;53.536;10.224;2023-02-14T03:46:57;40.40;;;22.92;;
38318;SDS011;24121;53.536;10.224;2023-02-14T03:49:29;37.72;;;20.77;;
38318;SDS011;24121;53.536;10.224;2023-02-14T03:51:57;40.30;;;23.83;;
38318;SDS011;24121;53.536;10.224;2023-02-14T03:54:23;42.95;;;23.15;;
38318;SDS011;24121;53.536;10.224;2023-02-14T03:56:50;44.42;;;24.27;;
38318;SDS011;24121;53.536;10.224;2023-02-14T03:59:19;36.63;;;21.52;;
38318;SDS011;24121;53.536;10.224;2023-02-14T04:04:13;40.28;;;22.50;;
38318;SDS011;24121;53.536;10.224;2023-02-14T04:06:39;42.85;;;23.77;;
38318;SDS011;24121;53.536;10.224;2023-02-14T04:09:05;43.75;;;23.92;;
38318;SDS011;24121;53.536;10.224;2023-02-14T04:11:31;42.08;;;23.30;;
38318;SDS011;24121;53.536;10.224;2023-02-14T04:13:59;38.70;;;22.08;;
38318;SDS011;24121;53.536;10.224;2023-02-14T04:16:24;39.33;;;22.92;;
38318;SDS011;24121;53.536;10.224;2023-02-14T04:18:49;37.85;;;21.80;;
38318;SDS011;24121;53.536;10.224;2023-02-14T04:21:33;41.85;;;22.60;;
38318;SDS011;24121;53.536;10.224;2023-02-14T04:23:59;39.38;;;22.65;;
38318;SDS011;24121;53.536;10.224;2023-02-14T04:26:24;40.95;;;22.58;;
38318;SDS011;24121;53.536;10.224;2023-02-14T04:28:49;40.67;;;23.10;;
38318;SDS011;24121;53.536;10.224;2023-02-14T04:31:15;39.60;;;21.55;;
38318;SDS011;24121;53.536;10.224;2023-02-14T04:33:41;33.50;;;20.65;;
38318;SDS011;24121;53.536;10.224;2023-02-14T04:36:06;36.58;;;20.70;;
38318;SDS011;24121;53.536;10.224;2023-02-14T04:38:32;36.33;;;20.40;;
38318;SDS011;24121;53.536;10.224;2023-02-14T04:40:57;35.15;;;20.95;;
38318;SDS011;24121;53.536;10.224;2023-02-14T04:43:22;36.80;;;20.98;;
38318;SDS011;24121;53.536;10.224;2023-02-14T04:45:48;38.97;;;21.85;;
38318;SDS011;24121;53.536;10.224;2023-02-14T04:48:13;37.55;;;21.27;;
38318;SDS011;24121;53.536;10.224;2023-02-14T04:50:39;36.33;;;21.27;;
38318;SDS011;24121;53.536;10.224;2023-02-14T04:53:04;38.67;;;22.50;;
38318;SDS011;24121;53.536;10.224;2023-02-14T04:55:29;38.28;;;21.83;;
38318;SDS011;24121;53.536;10.224;2023-02-14T04:57:55;34.58;;;20.52;;
38318;SDS011;24121;53.536;10.224;2023-02-14T05:00:20;39.33;;;21.85;;
38318;SDS011;24121;53.536;10.224;2023-02-14T05:02:46;42.17;;;23.55;;
38318;SDS011;24121;53.536;10.224;2023-02-14T05:05:11;41.13;;;21.75;;
38318;SDS011;24121;53.536;10.224;2023-02-14T05:07:36;39.17;;;22.05;;
38318;SDS011;24121;53.536;10.224;2023-02-14T05:10:02;41.67;;;22.48;;
38318;SDS011;24121;53.536;10.224;2023-02-14T05:12:28;37.70;;;21.77;;
38318;SDS011;24121;53.536;10.224;2023-02-14T05:14:54;41.28;;;22.33;;
38318;SDS011;24121;53.536;10.224;2023-02-14T05:17:20;36.55;;;22.15;;
38318;SDS011;24121;53.536;10.224;2023-02-14T05:19:45;39.47;;;22.58;;
38318;SDS011;24121;53.536;10.224;2023-02-14T05:22:10;42.95;;;22.70;;
38318;SDS011;24121;53.536;10.224;2023-02-14T05:24:35;38.13;;;22.50;;
38318;SDS011;24121;53.536;10.224;2023-02-14T05:27:01;41.75;;;23.70;;
38318;SDS011;24121;53.536;10.224;2023-02-14T05:29:26;43.05;;;23.73;;
38318;SDS011;24121;53.536;10.224;2023-02-14T05:31:52;39.97;;;22.13;;
38318;SDS011;24121;53.536;10.224;2023-02-14T05:34:17;39.88;;;23.08;;
38318;SDS011;24121;53.536;10.224;2023-02-14T05:36:42;36.13;;;21.00;;
38318;SDS011;24121;53.536;10.224;2023-02-14T05:39:08;38.67;;;23.98;;
38318;SDS011;24121;53.536;10.224;2023-02-14T05:41:33;42.20;;;21.70;;
38318;SDS011;24121;53.536;10.224;2023-02-14T05:43:58;33.47;;;20.33;;
38318;SDS011;24121;53.536;10.224;2023-02-14T05:46:24;40.17;;;22.20;;
38318;SDS011;24121;53.536;10.224;2023-02-14T05:48:49;41.67;;;22.42;;
38318;SDS011;24121;53.536;10.224;2023-02-14T05:51:14;38.47;;;22.00;;
38318;SDS011;24121;53.536;10.224;2023-02-14T05:53:40;39.53;;;22.77;;
38318;SDS011;24121;53.536;10.224;2023-02-14T05:56:05;41.17;;;22.98;;
38318;SDS011;24121;53.536;10.224;2023-02-14T05:58:30;37.75;;;22.27;;
38318;SDS011;24121;53.536;10.224;2023-02-14T06:00:56;40.70;;;22.85;;
38318;SDS011;24121;53.536;10.224;2023-02-14T06:03:22;40.58;;;22.60;;
38318;SDS011;24121;53.536;10.224;2023-02-14T06:05:47;41.67;;;23.33;;
38318;SDS011;24121;53.536;10.224;2023-02-14T06:08:12;41.42;;;22.70;;
38318;SDS011;24121;53.536;10.224;2023-02-14T06:10:38;35.85;;;21.35;;
38318;SDS011;24121;53.536;10.224;2023-02-14T06:13:03;39.80;;;21.42;;
38318;SDS011;24121;53.536;10.224;2023-02-14T06:15:32;34.83;;;20.93;;
38318;SDS011;24121;53.536;10.224;2023-02-14T06:18:00;39.38;;;22.30;;
38318;SDS011;24121;53.536;10.224;2023-02-14T06:20:26;39.60;;;21.75;;
38318;SDS011;24121;53.536;10.224;2023-02-14T06:22:51;38.45;;;20.85;;
38318;SDS011;24121;53.536;10.224;2023-02-14T06:25:17;41.08;;;22.33;;
38318;SDS011;24121;53.536;10.224;2023-02-14T06:27:42;36.13;;;21.17;;
38318;SDS011;24121;53.536;10.224;2023-02-14T06:30:08;38.83;;;23.10;;
38318;SDS011;24121;53.536;10.224;2023-02-14T06:32:34;42.55;;;24.35;;
38318;SDS011;24121;53.536;10.224;2023-02-14T06:35:00;41.10;;;23.40;;
38318;SDS011;24121;53.536;10.224;2023-02-14T06:37:26;40.40;;;22.27;;
38318;SDS011;24121;53.536;10.224;2023-02-14T06:39:51;41.70;;;23.75;;
38318;SDS011;24121;53.536;10.224;2023-02-14T06:42:16;41.67;;;24.70;;
38318;SDS011;24121;53.536;10.224;2023-02-14T06:44:41;41.30;;;24.02;;
38318;SDS011;24121;53.536;10.224;2023-02-14T06:47:07;42.53;;;23.92;;
38318;SDS011;24121;53.536;10.224;2023-02-14T06:49:32;40.45;;;23.33;;
38318;SDS011;24121;53.536;10.224;2023-02-14T06:51:58;42.40;;;23.98;;
38318;SDS011;24121;53.536;10.224;2023-02-14T06:54:23;48.13;;;25.23;;
38318;SDS011;24121;53.536;10.224;2023-02-14T06:56:48;46.20;;;23.80;;
38318;SDS011;24121;53.536;10.224;2023-02-14T06:59:14;41.42;;;23.67;;
38318;SDS011;24121;53.536;10.224;2023-02-14T07:01:39;40.08;;;23.08;;
38318;SDS011;24121;53.536;10.224;2023-02-14T07:04:07;42.55;;;23.17;;
38318;SDS011;24121;53.536;10.224;2023-02-14T07:06:34;41.42;;;23.73;;
38318;SDS011;24121;53.536;10.224;2023-02-14T07:09:00;45.72;;;24.17;;
38318;SDS011;24121;53.536;10.224;2023-02-14T07:11:25;41.50;;;24.70;;
38318;SDS011;24121;53.536;10.224;2023-02-14T07:13:52;42.42;;;24.48;;
38318;SDS011;24121;53.536;10.224;2023-02-14T07:16:17;43.28;;;24.55;;
38318;SDS011;24121;53.536;10.224;2023-02-14T07:18:43;39.28;;;23.58;;
38318;SDS011;24121;53.536;10.224;2023-02-14T07:21:08;43.47;;;23.95;;
38318;SDS011;24121;53.536;10.224;2023-02-14T07:23:33;43.67;;;24.02;;
38318;SDS011;24121;53.536;10.224;2023-02-14T07:25:58;40.55;;;24.63;;
38318;SDS011;24121;53.536;10.224;2023-02-14T07:28:24;47.50;;;26.30;;
38318;SDS011;24121;53.536;10.224;2023-02-14T07:30:49;40.70;;;23.08;;
38318;SDS011;24121;53.536;10.224;2023-02-14T07:33:14;40.67;;;24.05;;
38318;SDS011;24121;53.536;10.224;2023-02-14T07:35:40;39.42;;;23.85;;
38318;SDS011;24121;53.536;10.224;2023-02-14T07:38:05;42.85;;;24.10;;
38318;SDS011;24121;53.536;10.224;2023-02-14T07:40:30;40.53;;;22.55;;
38318;SDS011;24121;53.536;10.224;2023-02-14T07:42:56;41.15;;;23.80;;
38318;SDS011;24121;53.536;10.224;2023-02-14T07:45:22;37.67;;;22.77;;
38318;SDS011;24121;53.536;10.224;2023-02-14T07:47:50;40.08;;;23.17;;
38318;SDS011;24121;53.536;10.224;2023-02-14T07:50:16;38.78;;;22.75;;
38318;SDS011;24121;53.536;10.224;2023-02-14T07:52:42;38.22;;;21.90;;
38318;SDS011;24121;53.536;10.224;2023-02-14T07:55:08;39.90;;;23.13;;
38318;SDS011;24121;53.536;10.224;2023-02-14T07:57:33;36.90;;;22.73;;
38318;SDS011;24121;53.536;10.224;2023-02-14T07:59:58;40.22;;;24.02;;
38318;SDS011;24121;53.536;10.224;2023-02-14T08:02:24;38.78;;;23.38;;
38318;SDS011;24121;53.536;10.224;2023-02-14T08:04:49;39.55;;;22.52;;
38318;SDS011;24121;53.536;10.224;2023-02-14T08:07:14;41.10;;;23.50;;
38318;SDS011;24121;53.536;10.224;2023-02-14T08:09:39;38.95;;;24.23;;
38318;SDS011;24121;53.536;10.224;2023-02-14T08:12:05;40.28;;;24.20;;
38318;SDS011;24121;53.536;10.224;2023-02-14T08:14:49;37.50;;;23.08;;
38318;SDS011;24121;53.536;10.224;2023-02-14T08:17:14;40.13;;;22.85;;
38318;SDS011;24121;53.536;10.224;2023-02-14T08:19:39;36.92;;;22.05;;
38318;SDS011;24121;53.536;10.224;2023-02-14T08:22:05;44.00;;;24.63;;
38318;SDS011;24121;53.536;10.224;2023-02-14T08:24:31;35.50;;;21.20;;
38318;SDS011;24121;53.536;10.224;2023-02-14T08:26:56;32.13;;;20.98;;
38318;SDS011;24121;53.536;10.224;2023-02-14T08:29:21;34.45;;;20.70;;
38318;SDS011;24121;53.536;10.224;2023-02-14T08:31:47;31.13;;;19.90;;
38318;SDS011;24121;53.536;10.224;2023-02-14T08:34:13;33.03;;;21.23;;
38318;SDS011;24121;53.536;10.224;2023-02-14T08:36:39;34.85;;;21.52;;
38318;SDS011;24121;53.536;10.224;2023-02-14T08:39:04;34.92;;;20.77;;
38318;SDS011;24121;53.536;10.224;2023-02-14T08:41:30;33.88;;;20.52;;
38318;SDS011;24121;53.536;10.224;2023-02-14T08:43:55;36.80;;;21.60;;
38318;SDS011;24121;53.536;10.224;2023-02-14T08:46:21;34.28;;;19.80;;
38318;SDS011;24121;53.536;10.224;2023-02-14T08:48:46;30.45;;;19.35;;
38318;SDS011;24121;53.536;10.224;2023-02-14T08:51:13;36.03;;;20.73;;
38318;SDS011;24121;53.536;10.224;2023-02-14T08:53:39;32.78;;;19.67;;
38318;SDS011;24121;53.536;10.224;2023-02-14T08:56:05;29.65;;;19.15;;
38318;SDS011;24121;53.536;10.224;2023-02-14T08:58:32;31.00;;;19.85;;
38318;SDS011;24121;53.536;10.224;2023-02-14T09:00:59;34.17;;;20.35;;
38318;SDS011;24121;53.536;10.224;2023-02-14T09:03:25;31.20;;;19.20;;
38318;SDS011;24121;53.536;10.224;2023-02-14T09:05:51;32.85;;;18.35;;
38318;SDS011;24121;53.536;10.224;2023-02-14T09:08:16;32.50;;;19.67;;
38318;SDS011;24121;53.536;10.224;2023-02-14T09:10:41;29.95;;;17.77;;
38318;SDS011;24121;53.536;10.224;2023-02-14T09:13:06;32.17;;;19.85;;
38318;SDS011;24121;53.536;10.224;2023-02-14T09:15:32;28.40;;;18.17;;
38318;SDS011;24121;53.536;10.224;2023-02-14T09:17:57;29.05;;;18.67;;
38318;SDS011;24121;53.536;10.224;2023-02-14T09:20:22;28.23;;;17.60;;
38318;SDS011;24121;53.536;10.224;2023-02-14T09:22:48;27.13;;;17.08;;
38318;SDS011;24121;53.536;10.224;2023-02-14T09:25:13;27.48;;;17.67;;
38318;SDS011;24121;53.536;10.224;2023-02-14T09:27:38;25.30;;;16.45;;
38318;SDS011;24121;53.536;10.224;2023-02-14T09:30:05;27.10;;;18.02;;
38318;SDS011;24121;53.536;10.224;2023-02-14T09:32:31;26.25;;;18.33;;
38318;SDS011;24121;53.536;10.224;2023-02-14T09:34:56;26.63;;;18.15;;
38318;SDS011;24121;53.536;10.224;2023-02-14T09:37:22;30.45;;;18.75;;
38318;SDS011;24121;53.536;10.224;2023-02-14T09:40:06;27.58;;;19.20;;
38318;SDS011;24121;53.536;10.224;2023-02-14T09:45:18;25.42;;;17.45;;
38318;SDS011;24121;53.536;10.224;2023-02-14T09:50:42;30.33;;;18.92;;
38318;SDS011;24121;53.536;10.224;2023-02-14T09:53:18;29.52;;;19.02;;
38318;SDS011;24121;53.536;10.224;2023-02-14T09:58:29;28.73;;;18.58;;
38318;SDS011;24121;53.536;10.224;2023-02-14T10:06:16;27.33;;;18.10;;
38318;SDS011;24121;53.536;10.224;2023-02-14T10:11:21;27.52;;;18.95;;
38318;SDS011;24121;53.536;10.224;2023-02-14T10:16:22;29.52;;;20.17;;
38318;SDS011;24121;53.536;10.224;2023-02-14T10:21:40;25.65;;;18.73;;
38318;SDS011;24121;53.536;10.224;2023-02-14T10:24:22;28.10;;;18.63;;
38318;SDS011;24121;53.536;10.224;2023-02-14T10:26:50;30.13;;;19.05;;
38318;SDS011;24121;53.536;10.224;2023-02-14T10:29:17;27.92;;;18.83;;
38318;SDS011;24121;53.536;10.224;2023-02-14T10:34:28;25.67;;;18.38;;
38318;SDS011;24121;53.536;10.224;2023-02-14T10:42:59;24.60;;;17.42;;
38318;SDS011;24121;53.536;10.224;2023-02-14T10:45:40;28.58;;;18.15;;
38318;SDS011;24121;53.536;10.224;2023-02-14T10:48:24;25.10;;;17.70;;
38318;SDS011;24121;53.536;10.224;2023-02-14T10:51:31;27.13;;;17.27;;
38318;SDS011;24121;53.536;10.224;2023-02-14T10:54:04;24.58;;;16.75;;
38318;SDS011;24121;53.536;10.224;2023-02-14T10:56:38;28.52;;;18.58;;
38318;SDS011;24121;53.536;10.224;2023-02-14T10:59:22;25.75;;;17.10;;
38318;SDS011;24121;53.536;10.224;2023-02-14T11:01:51;25.92;;;17.73;;
38318;SDS011;24121;53.536;10.224;2023-02-14T11:04:18;24.83;;;17.42;;
38318;SDS011;24121;53.536;10.224;2023-02-14T11:06:46;25.50;;;17.35;;
38318;SDS011;24121;53.536;10.224;2023-02-14T11:09:15;27.83;;;17.80;;
38318;SDS011;24121;53.536;10.224;2023-02-14T11:11:50;23.80;;;17.20;;
38318;SDS011;24121;53.536;10.224;2023-02-14T11:21:59;24.08;;;17.00;;
38318;SDS011;24121;53.536;10.224;2023-02-14T11:24:29;24.10;;;16.30;;
38318;SDS011;24121;53.536;10.224;2023-02-14T11:27:03;24.45;;;17.27;;
38318;SDS011;24121;53.536;10.224;2023-02-14T11:29:32;28.50;;;18.30;;
38318;SDS011;24121;53.536;10.224;2023-02-14T11:32:13;26.83;;;17.45;;
38318;SDS011;24121;53.536;10.224;2023-02-14T11:34:40;24.95;;;17.20;;
38318;SDS011;24121;53.536;10.224;2023-02-14T11:37:15;23.92;;;15.55;;
38318;SDS011;24121;53.536;10.224;2023-02-14T11:39:48;23.30;;;16.38;;
38318;SDS011;24121;53.536;10.224;2023-02-14T11:42:14;29.58;;;17.30;;
38318;SDS011;24121;53.536;10.224;2023-02-14T11:44:59;24.58;;;15.90;;
38318;SDS011;24121;53.536;10.224;2023-02-14T11:47:26;26.23;;;18.02;;
38318;SDS011;24121;53.536;10.224;2023-02-14T11:50:00;25.42;;;17.33;;
38318;SDS011;24121;53.536;10.224;2023-02-14T11:52:29;25.17;;;17.70;;
38318;SDS011;24121;53.536;10.224;2023-02-14T11:54:55;26.45;;;17.48;;
38318;SDS011;24121;53.536;10.224;2023-02-14T11:57:28;25.98;;;18.13;;
38318;SDS011;24121;53.536;10.224;2023-02-14T11:59:58;23.13;;;15.68;;
38318;SDS011;24121;53.536;10.224;2023-02-14T12:02:30;23.92;;;15.77;;
38318;SDS011;24121;53.536;10.224;2023-02-14T12:05:04;26.02;;;17.27;;
38318;SDS011;24121;53.536;10.224;2023-02-14T12:07:40;24.88;;;16.95;;
38318;SDS011;24121;53.536;10.224;2023-02-14T12:12:51;25.10;;;17.77;;
38318;SDS011;24121;53.536;10.224;2023-02-14T12:17:48;26.25;;;17.73;;
38318;SDS011;24121;53.536;10.224;2023-02-14T12:20:15;24.05;;;16.92;;
38318;SDS011;24121;53.536;10.224;2023-02-14T12:25:34;25.35;;;16.63;;
38318;SDS011;24121;53.536;10.224;2023-02-14T12:28:19;26.60;;;17.42;;
38318;SDS011;24121;53.536;10.224;2023-02-14T12:30:47;27.85;;;18.60;;
38318;SDS011;24121;53.536;10.224;2023-02-14T12:33:22;25.20;;;17.85;;
38318;SDS011;24121;53.536;10.224;2023-02-14T12:38:59;25.67;;;17.45;;
38318;SDS011;24121;53.536;10.224;2023-02-14T12:47:19;26.33;;;17.08;;
38318;SDS011;24121;53.536;10.224;2023-02-14T12:49:55;28.77;;;19.38;;
38318;SDS011;24121;53.536;10.224;2023-02-14T12:52:47;27.77;;;18.13;;
38318;SDS011;24121;53.536;10.224;2023-02-14T12:57:56;25.80;;;17.60;;
38318;SDS011;24121;53.536;10.224;2023-02-14T13:03:26;26.70;;;18.35;;
38318;SDS011;24121;53.536;10.224;2023-02-14T13:06:16;27.13;;;18.52;;
38318;SDS011;24121;53.536;10.224;2023-02-14T13:11:40;27.15;;;17.85;;
38318;SDS011;24121;53.536;10.224;2023-02-14T13:22:16;25.45;;;17.17;;
38318;SDS011;24121;53.536;10.224;2023-02-14T13:24:49;23.65;;;17.13;;
38318;SDS011;24121;53.536;10.224;2023-02-14T13:27:17;27.80;;;19.02;;
38318;SDS011;24121;53.536;10.224;2023-02-14T13:29:47;25.77;;;17.92;;
38318;SDS011;24121;53.536;10.224;2023-02-14T13:32:15;29.40;;;18.83;;
38318;SDS011;24121;53.536;10.224;2023-02-14T13:34:45;27.30;;;18.40;;
38318;SDS011;24121;53.536;10.224;2023-02-14T13:37:12;27.75;;;17.88;;
38318;SDS011;24121;53.536;10.224;2023-02-14T13:39:39;26.25;;;18.13;;
38318;SDS011;24121;53.536;10.224;2023-02-14T13:42:10;25.08;;;17.60;;
38318;SDS011;24121;53.536;10.224;2023-02-14T13:47:18;27.27;;;18.95;;
38318;SDS011;24121;53.536;10.224;2023-02-14T13:49:46;25.83;;;18.15;;
38318;SDS011;24121;53.536;10.224;2023-02-14T13:52:14;26.10;;;18.30;;
38318;SDS011;24121;53.536;10.224;2023-02-14T13:55:16;25.98;;;17.50;;
38318;SDS011;24121;53.536;10.224;2023-02-14T13:57:43;25.40;;;17.75;;
38318;SDS011;24121;53.536;10.224;2023-02-14T14:02:46;28.48;;;17.92;;
38318;SDS011;24121;53.536;10.224;2023-02-14T14:10:50;27.02;;;18.30;;
38318;SDS011;24121;53.536;10.224;2023-02-14T14:16:18;26.65;;;18.60;;
38318;SDS011;24121;53.536;10.224;2023-02-14T14:18:47;25.73;;;17.90;;
38318;SDS011;24121;53.536;10.224;2023-02-14T14:21:14;24.75;;;17.35;;
38318;SDS011;24121;53.536;10.224;2023-02-14T14:24:13;26.93;;;18.47;;
38318;SDS011;24121;53.536;10.224;2023-02-14T14:26:45;25.90;;;18.25;;
38318;SDS011;24121;53.536;10.224;2023-02-14T14:29:17;27.42;;;18.70;;
38318;SDS011;24121;53.536;10.224;2023-02-14T14:31:44;24.80;;;17.25;;
38318;SDS011;24121;53.536;10.224;2023-02-14T14:34:14;24.80;;;17.63;;
38318;SDS011;24121;53.536;10.224;2023-02-14T14:36:42;27.23;;;18.52;;
38318;SDS011;24121;53.536;10.224;2023-02-14T14:39:08;25.33;;;17.08;;
38318;SDS011;24121;53.536;10.224;2023-02-14T14:41:34;25.55;;;17.88;;
38318;SDS011;24121;53.536;10.224;2023-02-14T14:43:59;24.40;;;17.45;;
38318;SDS011;24121;53.536;10.224;2023-02-14T14:46:24;26.48;;;17.65;;
38318;SDS011;24121;53.536;10.224;2023-02-14T14:48:50;24.42;;;17.20;;
38318;SDS011;24121;53.536;10.224;2023-02-14T14:51:22;25.40;;;19.10;;
38318;SDS011;24121;53.536;10.224;2023-02-14T14:58:44;27.13;;;18.67;;
38318;SDS011;24121;53.536;10.224;2023-02-14T15:01:10;25.20;;;17.42;;
38318;SDS011;24121;53.536;10.224;2023-02-14T15:03:39;25.85;;;17.70;;
38318;SDS011;24121;53.536;10.224;2023-02-14T15:06:14;24.70;;;16.98;;
38318;SDS011;24121;53.536;10.224;2023-02-14T15:08:41;26.38;;;17.80;;
38318;SDS011;24121;53.536;10.224;2023-02-14T15:13:39;28.08;;;18.63;;
38318;SDS011;24121;53.536;10.224;2023-02-14T15:18:57;24.92;;;17.60;;
38318;SDS011;24121;53.536;10.224;2023-02-14T15:21:23;26.75;;;18.30;;
38318;SDS011;24121;53.536;10.224;2023-02-14T15:23:49;26.70;;;18.00;;
38318;SDS011;24121;53.536;10.224;2023-02-14T15:26:37;25.42;;;17.85;;
38318;SDS011;24121;53.536;10.224;2023-02-14T15:29:03;27.98;;;18.83;;
38318;SDS011;24121;53.536;10.224;2023-02-14T15:31:30;22.92;;;16.02;;
38318;SDS011;24121;53.536;10.224;2023-02-14T15:33:58;28.38;;;19.05;;
38318;SDS011;24121;53.536;10.224;2023-02-14T15:36:25;26.48;;;17.52;;
38318;SDS011;24121;53.536;10.224;2023-02-14T15:38:51;24.73;;;17.13;;
38318;SDS011;24121;53.536;10.224;2023-02-14T15:41:17;26.73;;;18.17;;
38318;SDS011;24121;53.536;10.224;2023-02-14T15:43:44;25.70;;;18.08;;
38318;SDS011;24121;53.536;10.224;2023-02-14T15:46:15;24.98;;;16.95;;
38318;SDS011;24121;53.536;10.224;2023-02-14T15:48:43;23.75;;;16.20;;
38318;SDS011;24121;53.536;10.224;2023-02-14T15:51:14;26.60;;;18.73;;
38318;SDS011;24121;53.536;10.224;2023-02-14T15:56:19;25.40;;;18.27;;
38318;SDS011;24121;53.536;10.224;2023-02-14T15:58:46;26.02;;;17.77;;
38318;SDS011;24121;53.536;10.224;2023-02-14T16:01:12;27.10;;;18.23;;
38318;SDS011;24121;53.536;10.224;2023-02-14T16:03:38;29.92;;;20.02;;
38318;SDS011;24121;53.536;10.224;2023-02-14T16:06:11;28.45;;;18.95;;
38318;SDS011;24121;53.536;10.224;2023-02-14T16:08:39;29.83;;;20.02;;
38318;SDS011;24121;53.536;10.224;2023-02-14T16:11:13;30.42;;;19.70;;
38318;SDS011;24121;53.536;10.224;2023-02-14T16:13:42;31.17;;;19.95;;
38318;SDS011;24121;53.536;10.224;2023-02-14T16:18:44;32.72;;;19.35;;
38318;SDS011;24121;53.536;10.224;2023-02-14T16:26:35;30.30;;;19.63;;
38318;SDS011;24121;53.536;10.224;2023-02-14T16:29:02;28.40;;;18.42;;
38318;SDS011;24121;53.536;10.224;2023-02-14T16:31:28;33.47;;;20.02;;
38318;SDS011;24121;53.536;10.224;2023-02-14T16:33:54;31.02;;;20.52;;
38318;SDS011;24121;53.536;10.224;2023-02-14T16:36:21;29.38;;;18.98;;
38318;SDS011;24121;53.536;10.224;2023-02-14T16:38:49;31.02;;;19.83;;
38318;SDS011;24121;53.536;10.224;2023-02-14T16:41:16;31.70;;;20.25;;